Latest Weather Observations for Wangaratta

IDV60801

Issued at 10:31 pm EDT Thursday 5 March 2015 (issued every 30 minutes, with the page automatically refreshed every 10 minutes)

About weather observations | Map of weather stations | Latest weather observations for VIC | Other Formats
Station Details ID: 082138 Name: WANGARATTA AERO Lat: -36.42 Lon: 146.31 Height: 152.6 m
Data from the previous 72 hours. | See also: Recent months at Wangaratta
Date/Time
EDT
Temp
°C
App
Temp
°C
Dew
Point
Rel
Hum
%
Delta-T
°C
Wind Press
QNH
hPa
Press
MSL
hPa
Rain
since 9 am
mm
Dir
 
Spd
km/h
Gust
km/h
Spd
kts
Gust
kts
05/10:30pm 12.4 9.5 2.6 51 4.3 WSW 7 7 4 4 1014.8 1014.4 0.0
05/10:00pm 13.5 10.5 1.8 45 5.1 SSW 7 9 4 5 1014.9 1014.5 0.0
05/09:30pm 13.1 10.0 1.1 44 5.1 SW 7 9 4 5 1015.0 1014.6 0.0
05/09:00pm 14.0 10.5 1.0 41 5.6 SSW 9 13 5 7 1014.9 1014.5 0.0
05/08:30pm 14.8 11.3 1.0 39 6.0 SSW 9 13 5 7 1014.4 1014.0 0.0
05/08:00pm 16.0 11.1 -0.7 32 7.1 SSW 15 24 8 13 1014.2 1013.8 0.0
05/07:30pm 17.5 11.2 -1.2 28 7.9 SW 22 30 12 16 1014.2 1013.8 0.0
05/07:00pm 18.8 12.2 -0.6 27 8.4 SW 24 33 13 18 1014.1 1013.7 0.0
05/06:30pm 19.3 11.1 -1.2 25 8.9 SSW 32 41 17 22 1013.8 1013.4 0.0
05/06:00pm 19.9 11.3 -2.4 22 9.5 SSW 33 46 18 25 1013.4 1013.0 0.0
05/05:30pm 20.1 11.7 -2.3 22 9.5 SSW 32 43 17 23 1013.5 1013.1 0.0
05/05:00pm 21.0 12.3 -3.5 19 10.3 SW 33 50 18 27 1013.8 1013.4 0.0
05/04:42pm 20.8 12.3 -3.6 19 10.2 SW 32 50 17 27 1013.8 1013.4 0.0
05/04:30pm 20.9 12.4 -2.9 20 10.1 SW 32 46 17 25 1013.8 1013.4 0.0
05/04:19pm 20.8 12.9 -1.7 22 9.7 SSW 30 50 16 27 1013.9 1013.5 0.0
05/04:00pm 20.9 12.5 -1.0 23 9.6 SW 33 44 18 24 1014.0 1013.6 0.0
05/03:30pm 20.2 12.1 -0.4 25 9.1 SW 32 46 17 25 1014.4 1014.0 0.0
05/03:00pm 20.7 12.1 0.0 25 9.3 SW 35 50 19 27 1014.5 1014.1 0.0
05/02:30pm 20.2 11.1 2.1 30 8.4 SW 39 54 21 29 1015.1 1014.7 0.0
05/02:08pm 19.8 12.2 0.8 28 8.6 SW 30 50 16 27 1014.8 1014.4 0.0
05/02:00pm 19.7 12.2 1.2 29 8.4 SSW 30 41 16 22 1014.8 1014.4 0.0
05/01:32pm 19.5 12.3 1.0 29 8.4 SW 28 46 15 25 1015.2 1014.8 0.0
05/01:30pm 19.8 13.1 1.3 29 8.4 SW 26 46 14 25 1015.2 1014.8 0.0
05/01:00pm 18.8 10.2 0.4 29 8.2 SSW 35 50 19 27 1015.6 1015.2 0.0
05/12:40pm 17.8 10.6 0.9 32 7.5 SSW 28 46 15 25 1015.8 1015.4 0.0
05/12:30pm 17.9 9.9 1.4 33 7.4 SSW 33 44 18 24 1015.7 1015.3 0.0
05/12:00pm 18.2 10.5 2.5 35 7.2 SSW 32 48 17 26 1015.8 1015.4 0.0
05/11:30am 17.2 8.8 1.6 35 7.0 SSW 35 48 19 26 1015.7 1015.3 0.0
05/11:03am 17.1 8.3 1.5 35 7.0 SSW 37 56 20 30 1015.5 1015.1 0.0
05/11:00am 17.0 8.2 1.4 35 7.0 SW 37 54 20 29 1015.6 1015.2 0.0
05/10:51am 16.8 8.4 1.3 35 6.9 SSW 35 50 19 27 1015.5 1015.1 0.0
05/10:44am 16.5 9.4 1.4 36 6.7 SSW 28 48 15 26 1015.3 1014.9 0.0
05/10:30am 16.9 8.7 2.9 39 6.4 SW 35 48 19 26 1015.3 1014.9 0.0
05/10:00am 15.3 6.6 2.1 41 5.9 SW 37 52 20 28 1015.1 1014.7 0.0
05/09:37am 15.0 6.3 2.2 42 5.7 SW 37 61 20 33 1014.6 1014.2 0.0
05/09:30am 15.2 7.0 2.7 43 5.6 SW 35 46 19 25 1014.3 1013.9 0.0
05/09:00am 14.2 6.3 2.1 44 5.4 SW 33 48 18 26 1014.3 1013.9 0.0
05/08:30am 13.8 6.4 2.1 45 5.2 SSW 30 43 16 23 1013.5 1013.1 0.0
05/08:00am 13.2 6.1 1.5 45 5.1 SW 28 44 15 24 1013.5 1013.1 0.0
05/07:30am 12.7 7.1 3.4 53 4.2 SW 22 30 12 16 1013.3 1012.9 0.0
05/07:00am 13.1 5.8 4.3 55 4.0 SSW 32 43 17 23 1012.6 1012.1 0.0
05/06:33am 14.2 5.3 6.8 61 3.6 SSW 43 80 23 43 1012.0 1011.5 0.0
05/06:30am 14.3 7.1 7.8 65 3.2 SSW 35 57 19 31 1011.9 1011.4 0.0
05/06:05am 14.1 9.1 10.9 81 1.7 SW 28 46 15 25 1011.2 1010.8 0.0
05/06:00am 13.8 8.0 10.8 82 1.6 SSW 32 46 17 25 1011.1 1010.7 0.0
05/05:34am 16.4 10.1 9.1 62 3.8 WSW 32 52 17 28 1010.2 1009.8 0.0
05/05:30am 16.6 11.0 8.8 60 4.0 WSW 28 41 15 22 1010.1 1009.7 0.0
05/05:00am 16.6 12.5 8.6 59 4.1 W 20 32 11 17 1009.6 1009.2 0.0
05/04:30am 16.0 12.7 8.2 60 4.0 W 15 22 8 12 1009.5 1009.1 0.0
05/04:00am 16.7 13.2 8.7 59 4.1 W 17 22 9 12 1009.6 1009.2 0.0
05/03:30am 17.4 13.9 8.8 57 4.5 W 17 24 9 13 1009.5 1009.1 0.0
05/03:00am 17.8 13.7 8.6 55 4.8 WSW 20 35 11 19 1009.7 1009.3 0.0
05/02:30am 18.0 13.8 8.3 53 5.0 W 20 32 11 17 1009.7 1009.3 0.0
05/02:00am 18.2 14.6 8.2 52 5.2 W 17 24 9 13 1009.6 1009.2 0.0
05/01:30am 18.9 14.8 7.7 48 5.8 W 19 24 10 13 1009.7 1009.3 0.0
05/01:00am 19.3 15.5 7.4 46 6.1 W 17 24 9 13 1009.8 1009.4 0.0
05/12:30am 19.3 17.1 6.1 42 6.6 NW 7 13 4 7 1010.1 1009.7 0.0
05/12:00am 19.7 16.2 5.4 39 7.1 WNW 13 19 7 10 1010.1 1009.7 0.0
 
Date/Time
EDT
Temp
°C
App
Temp
°C
Dew
Point
Rel
Hum
%
Delta-T
°C
Wind Press
QNH
hPa
Press
MSL
hPa
Rain
since 9 am
mm
Dir
 
Spd
km/h
Gust
km/h
Spd
kts
Gust
kts
04/11:30pm 19.1 15.7 4.1 37 7.2 NW 11 17 6 9 1010.1 1009.7 0.0
04/11:00pm 19.9 16.1 4.0 35 7.7 NW 13 17 7 9 1010.1 1009.7 0.0
04/10:30pm 21.2 16.3 3.9 32 8.4 WNW 19 24 10 13 1010.2 1009.8 0.0
04/10:00pm 21.1 15.9 2.4 29 8.8 WNW 19 26 10 14 1010.1 1009.7 0.0
04/09:30pm 21.0 15.5 0.8 26 9.2 WNW 19 22 10 12 1010.3 1009.9 0.0
04/09:00pm 20.0 15.9 -0.1 26 8.9 WNW 11 13 6 7 1010.3 1009.9 0.0
04/08:30pm 21.3 16.8 -0.1 24 9.6 W 13 17 7 9 1010.0 1009.6 0.0
04/08:00pm 23.1 17.8 -0.4 21 10.7 W 17 20 9 11 1010.0 1009.6 0.0
04/07:30pm 24.6 18.3 -1.3 18 11.7 W 22 30 12 16 1009.8 1009.4 0.0
04/07:00pm 25.9 19.0 -2.7 15 12.7 W 24 30 13 16 1009.7 1009.3 0.0
04/06:30pm 27.0 20.4 -3.7 13 13.5 W 22 33 12 18 1009.8 1009.4 0.0
04/06:00pm 27.6 21.1 -2.3 14 13.6 W 22 32 12 17 1009.8 1009.4 0.0
04/05:30pm 28.4 22.1 -3.7 12 14.3 W 20 32 11 17 1009.8 1009.4 0.0
04/05:00pm 28.6 21.3 -6.0 10 14.8 WNW 24 33 13 18 1009.9 1009.5 0.0
04/04:30pm 28.6 22.5 -2.5 13 14.2 WSW 20 32 11 17 1010.1 1009.7 0.0
04/04:00pm 28.7 21.7 -7.3 9 15.1 W 22 33 12 18 1010.3 1009.9 0.0
04/03:30pm 28.8 22.7 -2.3 13 14.2 W 20 35 11 19 1011.0 1010.6 0.0
04/03:00pm 28.3 21.1 -4.9 11 14.5 WSW 24 35 13 19 1011.4 1011.0 0.0
04/02:30pm 28.7 22.3 -4.6 11 14.6 W 20 32 11 17 1011.7 1011.2 0.0
04/02:00pm 27.7 20.5 -5.4 11 14.2 W 24 35 13 19 1012.2 1011.7 0.0
04/01:30pm 27.8 21.4 -5.3 11 14.2 W 20 32 11 17 1012.5 1012.0 0.0
04/01:00pm 27.3 21.7 -2.5 14 13.4 W 17 28 9 15 1012.9 1012.4 0.0
04/12:30pm 26.0 20.4 -2.6 15 12.7 W 17 28 9 15 1013.5 1013.1 0.0
04/12:00pm 25.7 20.9 0.4 19 11.9 WSW 15 22 8 12 1013.9 1013.5 0.0
04/11:30am 25.0 20.1 -0.2 19 11.6 W 15 24 8 13 1014.2 1013.8 0.0
04/11:00am 24.3 20.0 3.0 25 10.4 WSW 15 24 8 13 1014.5 1014.1 0.0
04/10:30am 22.4 19.5 4.9 32 8.7 SW 9 13 5 7 1014.6 1014.2 0.0
04/10:00am 21.5 20.7 6.6 38 7.6 CALM 0 0 0 0 1014.7 1014.3 0.0
04/09:30am 18.8 18.2 7.6 48 5.7 CALM 0 2 0 1 1014.8 1014.4 0.0
04/09:00am 16.9 15.9 7.5 54 4.7 SE 2 7 1 4 1014.8 1014.4 0.0
04/08:30am 14.0 12.0 7.3 64 3.3 S 7 9 4 5 1014.8 1014.4 0.0
04/08:00am 10.9 9.3 8.0 82 1.4 SSW 6 9 3 5 1014.4 1014.0 0.0
04/07:30am 7.8 5.7 5.6 86 1.0 SW 6 9 3 5 1014.2 1013.8 0.0
04/07:00am 8.7 7.7 5.4 80 1.5 CALM 0 0 0 0 1013.7 1013.3 0.0
04/06:30am 9.0 6.8 5.2 77 1.7 S 6 9 3 5 1013.6 1013.2 0.0
04/06:00am 9.6 7.9 6.0 78 1.7 SSE 4 6 2 3 1013.3 1012.9 0.0
04/05:30am 10.1 7.8 5.9 75 2.0 SSE 7 9 4 5 1013.1 1012.7 0.0
04/05:00am 10.2 8.1 5.8 74 2.0 S 6 7 3 4 1012.9 1012.4 0.0
04/04:30am 10.1 7.9 6.3 77 1.8 SSW 7 9 4 5 1012.8 1012.3 0.0
04/04:00am 11.1 8.8 5.0 66 2.8 S 6 7 3 4 1012.7 1012.2 0.0
04/03:30am 12.1 11.1 5.7 65 3.0 CALM 0 0 0 0 1012.8 1012.3 0.0
04/03:00am 13.3 11.6 5.9 61 3.5 SSW 4 9 2 5 1013.1 1012.7 0.0
04/02:30am 13.9 11.6 5.5 57 4.0 S 7 7 4 4 1013.2 1012.8 0.0
04/02:00am 14.5 12.0 3.9 49 4.9 SE 6 7 3 4 1013.4 1013.0 0.0
04/01:30am 15.6 11.4 3.7 45 5.5 SSW 15 19 8 10 1013.4 1013.0 0.0
04/01:00am 17.0 13.3 4.3 43 6.0 S 13 19 7 10 1013.5 1013.1 0.0
04/12:30am 15.2 13.0 8.0 62 3.6 SSE 9 13 5 7 1013.7 1013.3 0.0
04/12:00am 16.1 15.2 6.0 51 4.9 CALM 0 0 0 0 1013.8 1013.4 0.0
 
Date/Time
EDT
Temp
°C
App
Temp
°C
Dew
Point
Rel
Hum
%
Delta-T
°C
Wind Press
QNH
hPa
Press
MSL
hPa
Rain
since 9 am
mm
Dir
 
Spd
km/h
Gust
km/h
Spd
kts
Gust
kts
03/11:30pm 16.5 15.7 6.3 51 5.0 CALM 0 0 0 0 1013.8 1013.4 0.0
03/11:00pm 16.4 13.7 5.4 48 5.3 SSW 9 9 5 5 1013.7 1013.3 0.0
03/10:30pm 19.0 16.0 6.1 43 6.4 SSW 11 15 6 8 1013.8 1013.4 0.0
03/10:00pm 18.1 14.2 5.3 43 6.2 WSW 15 17 8 9 1013.6 1013.2 0.0
03/09:30pm 19.5 15.9 4.8 38 7.2 WSW 13 15 7 8 1013.5 1013.1 0.0
03/09:00pm 21.9 17.9 4.9 33 8.4 SSW 15 19 8 10 1013.1 1012.7 0.0
03/08:30pm 23.6 19.3 3.0 26 10.0 SW 15 19 8 10 1012.7 1012.2 0.0
03/08:00pm 24.4 19.2 0.0 20 11.3 SW 17 22 9 12 1012.4 1011.9 0.0
03/07:30pm 26.7 22.0 1.2 19 12.2 SW 15 20 8 11 1012.1 1011.6 0.0
03/07:00pm 28.2 22.0 0.0 16 13.4 W 22 30 12 16 1011.8 1011.3 0.0
03/06:30pm 29.0 23.8 -0.2 15 13.9 WSW 17 24 9 13 1011.5 1011.1 0.0
03/06:00pm 30.1 23.9 -0.3 14 14.6 W 22 28 12 15 1011.4 1011.0 0.0
03/05:30pm 30.3 24.2 -2.2 12 15.1 W 20 32 11 17 1011.7 1011.2 0.0
03/05:00pm 30.9 24.9 -3.0 11 15.6 W 19 30 10 16 1011.7 1011.2 0.0
03/04:30pm 30.7 24.5 -3.1 11 15.5 WSW 20 33 11 18 1011.5 1011.1 0.0
03/04:00pm 30.6 25.3 -0.9 13 15.0 W 17 28 9 15 1011.9 1011.4 0.0
03/03:30pm 30.3 24.6 -3.4 11 15.3 W 17 30 9 16 1012.2 1011.7 0.0
03/03:00pm 29.8 24.6 -2.6 12 14.9 SW 15 30 8 16 1012.4 1011.9 0.0
03/02:30pm 29.9 25.1 0.5 15 14.2 W 15 28 8 15 1012.9 1012.4 0.0
03/02:00pm 28.9 25.7 3.0 19 13.0 NE 9 19 5 10 1013.2 1012.8 0.0
03/01:30pm 28.9 25.7 3.0 19 13.0 SSE 9 15 5 8 1013.4 1013.0 0.0
03/01:00pm 27.9 24.8 3.6 21 12.3 SSE 9 19 5 10 1013.9 1013.5 0.0
03/12:30pm 27.9 24.8 5.5 24 11.7 S 11 17 6 9 1014.3 1013.9 0.0
03/12:00pm 27.3 24.3 6.1 26 11.1 SSW 11 19 6 10 1014.7 1014.3 0.0
03/11:30am 26.2 24.4 7.3 30 10.1 NE 6 9 3 5 1014.9 1014.5 0.0
03/11:00am 25.5 23.6 7.6 32 9.5 SSE 7 13 4 7 1015.1 1014.7 0.0
03/10:30am 24.3 21.9 7.0 33 9.1 ENE 9 15 5 8 1014.9 1014.5 0.0
03/10:00am 23.4 21.9 9.0 40 7.8 ESE 7 17 4 9 1015.1 1014.7 0.0
03/09:30am 21.2 19.3 9.1 46 6.5 SSE 9 11 5 6 1015.2 1014.8 0.0
03/09:00am 19.9 18.3 10.3 54 5.2 S 9 11 5 6 1015.0 1014.6 0.0
03/08:30am 19.1 18.6 10.6 58 4.6 SW 4 11 2 6 1015.0 1014.6 0.0
03/08:00am 17.4 17.1 11.4 68 3.3 W 4 7 2 4 1014.3 1013.9 0.0
03/07:30am 16.3 16.6 11.0 71 2.9 CALM 0 0 0 0 1013.5 1013.1 0.0
03/07:00am 16.6 16.3 10.2 66 3.4 N 2 9 1 5 1013.6 1013.2 0.0
03/06:30am 16.5 15.4 10.8 69 3.1 SSE 7 11 4 6 1013.4 1013.0 0.0
03/06:00am 16.9 15.9 11.0 68 3.2 SSE 7 9 4 5 1013.2 1012.8 0.0
03/05:30am 17.0 15.9 10.6 66 3.4 SSE 7 9 4 5 1013.0 1012.6 0.0
03/05:00am 15.8 14.9 11.2 74 2.5 W 7 9 4 5 1012.8 1012.3 0.0
03/04:30am 16.2 16.0 10.5 69 3.0 NNE 2 6 1 3 1012.9 1012.4 0.0
03/04:00am 16.6 16.8 10.5 67 3.3 CALM 0 0 0 0 1012.8 1012.3 0.0
03/03:30am 17.1 15.9 9.5 61 4.0 ESE 6 7 3 4 1012.4 1011.9 0.0
03/03:00am 18.0 16.6 9.4 57 4.5 SSE 7 7 4 4 1012.5 1012.0 0.0
03/02:30am 18.2 17.1 9.8 58 4.5 SSW 6 7 3 4 1012.7 1012.2 0.0
03/02:00am 18.3 16.1 9.4 56 4.7 SSW 11 13 6 7 1012.7 1012.2 0.0
03/01:30am 18.0 15.5 9.6 58 4.5 SSW 13 15 7 8 1013.2 1012.8 0.0
03/01:00am 18.0 16.1 9.1 56 4.7 SW 9 11 5 6 1013.0 1012.6 0.0
03/12:30am 18.7 17.1 8.9 53 5.1 SE 7 9 4 5 1013.1 1012.7 0.0
03/12:00am 19.3 17.8 8.6 50 5.6 S 6 9 3 5 1013.4 1013.0 0.0
 
Date/Time
EDT
Temp
°C
App
Temp
°C
Dew
Point
Rel
Hum
%
Delta-T
°C
Wind Press
QNH
hPa
Press
MSL
hPa
Rain
since 9 am
mm
Dir
 
Spd
km/h
Gust
km/h
Spd
kts
Gust
kts
02/11:30pm 19.9 18.1 7.9 46 6.2 S 7 7 4 4 1013.6 1013.2 0.0
02/11:00pm 20.1 18.7 7.1 43 6.7 SSE 4 6 2 3 1013.7 1013.3 0.0

Other Formats:

Comma delimited format used in spreadsheet applications
http://www.bom.gov.au/fwo/IDV60801/IDV60801.94889.axf

JavaScript Object Notation format (JSON) in row-major order
http://www.bom.gov.au/fwo/IDV60801/IDV60801.94889.json